Time;durP1;ratioP1;P1;durP2;ratioP2;P2;SDS_P1;SDS_P2;PMS_P1;PMS_P2;Temp;Humidity;BMP_temperature;BMP_pressure;BME280_temperature;BME280_humidity;BME280_pressure;Samples;Min_cycle;Max_cycle;Signal;HPM_P1;HPM_P2
2022/11/04 00:02:03;;;;;;;19.20;8.05;;;;;;;9.39;100.00;98398.66;4340542;33;20044;-74
2022/11/04 00:04:30;;;;;;;19.52;7.20;;;;;;;9.28;100.00;98360.16;4340135;33;20036;-73
2022/11/04 00:06:56;;;;;;;17.60;8.27;;;;;;;9.12;100.00;98366.47;4339026;33;20054;-74
2022/11/04 00:09:27;;;;;;;20.40;7.10;;;;;;;9.21;100.00;98394.50;4338897;33;20068;-75
2022/11/04 00:14:39;;;;;;;22.50;7.95;;;;;;;9.18;100.00;98381.56;4337092;33;20051;-74
2022/11/04 00:17:20;;;;;;;20.88;7.78;;;;;;;8.78;100.00;98329.94;4338879;33;20486;-75
2022/11/04 00:33:24;;;;;;;21.62;7.12;;;;;;;9.15;100.00;98328.38;4334424;33;20060;-74
2022/11/04 00:33:49;;;;;;;16.48;8.15;;;;;;;9.05;100.00;98329.91;4321927;33;20356;-75
2022/11/04 00:36:16;;;;;;;16.95;7.00;;;;;;;9.18;100.00;98322.47;4350041;32;20083;-74
2022/11/04 00:38:42;;;;;;;17.70;7.40;;;;;;;9.08;100.00;98356.25;4347374;32;20091;-74
2022/11/04 00:41:25;;;;;;;20.62;8.05;;;;;;;9.38;100.00;98349.50;4337767;33;20029;-73
2022/11/04 00:44:00;;;;;;;25.67;9.60;;;;;;;9.06;100.00;98319.97;4339768;33;20024;-74
2022/11/04 00:46:29;;;;;;;21.12;7.65;;;;;;;9.19;100.00;98351.78;4339509;33;20078;-74
2022/11/04 00:48:57;;;;;;;14.40;7.57;;;;;;;9.25;100.00;98296.19;4336860;33;20071;-73
2022/11/04 00:51:23;;;;;;;20.73;8.52;;;;;;;9.63;100.00;98339.94;4326938;33;20043;-74
2022/11/04 00:53:52;;;;;;;21.37;7.20;;;;;;;9.06;100.00;98299.31;4324931;33;20186;-74
2022/11/04 00:56:18;;;;;;;19.02;7.55;;;;;;;9.45;100.00;98333.13;4299471;33;20405;-74
2022/11/04 00:58:45;;;;;;;21.73;7.87;;;;;;;8.94;100.00;98289.81;4300679;33;20070;-73
2022/11/04 01:01:16;;;;;;;17.48;7.03;;;;;;;9.34;100.00;98321.50;4309907;33;20420;-74
2022/11/04 01:03:47;;;;;;;21.83;8.48;;;;;;;9.32;100.00;98329.03;4309255;33;20215;-74
2022/11/04 01:06:15;;;;;;;25.30;7.30;;;;;;;8.75;100.00;98276.78;4308801;33;20025;-74
2022/11/04 01:08:41;;;;;;;23.50;7.65;;;;;;;9.36;100.00;98314.00;4278262;33;20078;-74
2022/11/04 01:11:08;;;;;;;20.02;7.87;;;;;;;9.26;100.00;98270.97;4294799;33;20041;-74
2022/11/04 01:13:36;;;;;;;22.42;8.27;;;;;;;9.38;100.00;98306.50;4289438;33;20046;-74
2022/11/04 01:16:05;;;;;;;18.15;8.38;;;;;;;9.02;100.00;98292.81;4271797;33;20037;-74
2022/11/04 01:18:31;;;;;;;18.70;8.77;;;;;;;9.27;100.00;98300.25;4269322;33;20033;-73
2022/11/04 01:21:05;;;;;;;15.43;7.85;;;;;;;9.27;100.00;98294.88;4265050;33;20046;-73
2022/11/04 01:23:34;;;;;;;20.02;7.00;;;;;;;9.18;100.00;98301.78;4267045;33;20034;-74
2022/11/04 01:26:05;;;;;;;24.75;8.23;;;;;;;9.21;100.00;98268.25;4266836;33;20392;-74
2022/11/04 01:28:31;;;;;;;27.33;8.82;;;;;;;9.52;100.00;98295.28;4311331;33;20073;-74
2022/11/04 01:33:31;;;;;;;19.52;8.00;;;;;;;9.01;100.00;98264.34;4325851;33;20048;-75
2022/11/04 01:36:01;;;;;;;14.25;6.93;;;;;;;9.00;100.00;98262.72;4324096;33;20097;-75
2022/11/04 01:38:28;;;;;;;19.15;8.18;;;;;;;9.54;100.00;98301.19;4321844;33;20060;-74
2022/11/04 01:40:54;;;;;;;22.10;7.60;;;;;;;9.41;100.00;98283.66;4324001;33;20078;-75
2022/11/04 01:43:22;;;;;;;18.55;7.15;;;;;;;8.69;100.00;98246.38;4309781;33;20058;-75
2022/11/04 01:45:59;;;;;;;14.27;6.78;;;;;;;8.99;100.00;98245.00;4306401;33;20041;-75
2022/11/04 01:48:32;;;;;;;21.98;9.98;;;;;;;9.35;100.00;98285.53;4296430;33;20053;-74
2022/11/04 01:50:59;;;;;;;;;;;;;;;9.31;100.00;98281.72;4302418;33;20371;-75
2022/11/04 01:53:32;;;;;;;16.85;8.38;;;;;;;9.24;100.00;98279.28;4299786;33;19948;-74
2022/11/04 01:56:04;;;;;;;23.02;7.10;;;;;;;9.15;100.00;98274.66;4309323;33;20491;-75
2022/11/04 01:58:33;;;;;;;18.50;8.25;;;;;;;9.01;100.00;98224.06;4309100;33;20053;-74
2022/11/04 02:01:01;;;;;;;18.73;8.65;;;;;;;9.00;100.00;98222.47;4336369;33;20043;-75
2022/11/04 02:03:39;;;;;;;17.98;8.75;;;;;;;9.21;100.00;98262.87;4339440;33;20132;-75
2022/11/04 02:06:07;;;;;;;15.57;7.35;;;;;;;9.01;100.00;98210.63;4337525;33;20440;-74
2022/11/04 02:08:34;;;;;;;22.15;7.45;;;;;;;9.18;100.00;98258.03;4338871;33;20148;-74
2022/11/04 02:11:02;;;;;;;19.17;7.90;;;;;;;9.27;100.00;98251.91;4338402;33;20053;-74
2022/11/04 02:13:31;;;;;;;15.30;6.72;;;;;;;9.15;100.00;98211.00;4335259;33;20047;-75
2022/11/04 02:16:19;;;;;;;16.55;7.95;;;;;;;9.38;100.00;98246.56;4327116;33;20033;-75
2022/11/04 02:19:27;;;;;;;20.55;7.53;;;;;;;9.12;100.00;98248.31;4327794;33;20066;-74
2022/11/04 02:21:59;;;;;;;20.37;8.45;;;;;;;9.01;100.00;98229.44;4336526;33;20073;-75
2022/11/04 02:25:01;;;;;;;17.10;8.18;;;;;;;9.22;100.00;98248.34;4338089;33;20077;-75
2022/11/04 02:27:42;;;;;;;17.10;8.48;;;;;;;9.37;100.00;98237.69;4338262;33;20202;-74
2022/11/04 02:30:16;;;;;;;22.37;8.60;;;;;;;8.87;100.00;98201.41;4337557;33;20048;-75
2022/11/04 02:32:46;;;;;;;15.50;8.50;;;;;;;8.95;100.00;98206.31;4332391;33;20033;-74
2022/11/04 02:35:33;;;;;;;20.45;9.48;;;;;;;9.31;100.00;98236.06;4331623;33;20076;-73
2022/11/04 02:38:11;;;;;;;18.75;8.88;;;;;;;9.59;100.00;98234.06;4325988;33;20398;-74
2022/11/04 02:40:37;;;;;;;16.25;7.18;;;;;;;9.66;100.00;98231.91;4313191;33;20078;-73
2022/11/04 02:43:26;;;;;;;18.42;8.43;;;;;;;9.70;100.00;98226.81;4317856;33;20052;-73
2022/11/04 02:46:15;;;;;;;17.23;8.00;;;;;;;9.56;100.00;98215.75;4316533;33;20060;-73
2022/11/04 02:48:52;;;;;;;17.50;8.07;;;;;;;9.60;100.00;98219.53;4311155;33;20075;-73
2022/11/04 02:51:26;;;;;;;17.58;7.65;;;;;;;9.59;100.00;98215.25;4316615;33;20048;-73
2022/11/04 02:54:04;;;;;;;17.98;8.02;;;;;;;9.38;100.00;98182.91;4323350;33;20053;-73
2022/11/04 02:56:36;;;;;;;20.17;7.40;;;;;;;9.39;100.00;98211.38;4325097;33;20057;-74
2022/11/04 02:59:11;;;;;;;16.55;8.07;;;;;;;9.65;100.00;98200.72;4328675;33;20028;-74
2022/11/04 03:01:42;;;;;;;18.92;8.13;;;;;;;9.60;100.00;98198.03;4352779;32;20040;-73
2022/11/04 03:04:14;;;;;;;14.52;7.87;;;;;;;9.58;100.00;98162.56;4354674;32;20073;-73
2022/11/04 03:06:43;;;;;;;19.83;7.15;;;;;;;9.58;100.00;98146.41;4352409;32;20076;-73
2022/11/04 03:09:13;;;;;;;17.48;7.70;;;;;;;9.89;100.00;98168.00;4349574;32;20381;-74
2022/11/04 03:11:44;;;;;;;16.45;8.00;;;;;;;9.11;100.00;98123.16;4341550;32;20114;-73
2022/11/04 03:14:17;;;;;;;12.93;7.60;;;;;;;9.59;100.00;98173.03;4346557;33;20090;-74
2022/11/04 03:16:49;;;;;;;27.62;10.05;;;;;;;9.70;100.00;98141.63;4348661;32;20161;-74
2022/11/04 03:19:24;;;;;;;16.17;7.97;;;;;;;9.65;100.00;98176.53;4339756;32;20044;-73
2022/11/04 03:22:02;;;;;;;20.88;8.95;;;;;;;9.69;100.00;98177.63;4345448;33;20130;-74
2022/11/04 03:24:30;;;;;;;16.55;8.07;;;;;;;9.20;100.00;98143.06;4349535;33;20110;-74
2022/11/04 03:27:03;;;;;;;17.23;7.35;;;;;;;9.55;100.00;98157.69;4353105;32;20083;-74
2022/11/04 03:29:36;;;;;;;24.95;8.98;;;;;;;9.52;100.00;98160.91;4351259;33;20023;-73
2022/11/04 03:32:08;;;;;;;20.67;10.30;;;;;;;9.44;100.00;98176.50;4346526;32;20174;-74
2022/11/04 03:34:36;;;;;;;17.33;8.70;;;;;;;9.53;100.00;98163.34;4340677;33;20193;-76
2022/11/04 03:37:04;;;;;;;23.73;8.38;;;;;;;9.27;100.00;98127.53;4339847;33;20048;-74
2022/11/04 03:39:30;;;;;;;21.40;8.32;;;;;;;9.71;100.00;98170.09;4339732;33;20068;-75
2022/11/04 03:42:01;;;;;;;15.63;8.73;;;;;;;9.48;100.00;98160.62;4340635;33;20404;-74
2022/11/04 03:44:28;;;;;;;17.65;8.85;;;;;;;9.20;100.00;98118.87;4348855;32;20054;-73
2022/11/04 03:46:55;;;;;;;17.60;8.75;;;;;;;9.53;100.00;98151.78;4353722;32;20055;-73
2022/11/04 03:49:23;;;;;;;17.83;9.73;;;;;;;9.47;100.00;98112.53;4355262;32;20052;-74
2022/11/04 03:51:51;;;;;;;23.35;10.00;;;;;;;9.42;100.00;98157.13;4355241;32;20047;-74
2022/11/04 03:54:18;;;;;;;16.98;8.00;;;;;;;8.98;100.00;98119.84;4354774;32;20044;-73
2022/11/04 03:56:59;;;;;;;24.25;9.02;;;;;;;9.31;100.00;98158.16;4355221;32;20154;-73
2022/11/04 04:00:10;;;;;;;24.83;10.73;;;;;;;9.43;100.00;98169.50;4339310;33;20040;-73
2022/11/04 04:02:39;;;;;;;25.02;10.20;;;;;;;9.24;100.00;98125.37;4339497;32;20056;-73
2022/11/04 04:05:13;;;;;;;25.05;10.52;;;;;;;9.07;100.00;98145.16;4341979;33;20058;-73
2022/11/04 04:07:54;;;;;;;22.02;8.98;;;;;;;9.47;100.00;98163.59;4342638;33;20040;-74
2022/11/04 04:10:41;;;;;;;19.60;8.73;;;;;;;8.98;100.00;98117.16;4345657;32;20069;-73
2022/11/04 04:13:18;;;;;;;22.23;10.68;;;;;;;9.29;100.00;98119.22;4357168;32;20056;-74
2022/11/04 04:16:06;;;;;;;15.00;8.52;;;;;;;9.36;100.00;98155.47;4354293;32;20044;-75
2022/11/04 04:18:48;;;;;;;26.10;10.57;;;;;;;9.42;100.00;98111.44;4342378;33;20044;-76
2022/11/04 04:21:21;;;;;;;20.85;11.12;;;;;;;9.33;100.00;98131.81;4342129;33;20399;-74
2022/11/04 04:29:26;;;;;;;23.23;8.82;;;;;;;9.22;100.00;98135.53;4340283;33;20442;-75
2022/11/04 04:31:56;;;;;;;16.25;9.10;;;;;;;9.67;100.00;98134.09;4342103;33;20037;-75
2022/11/04 04:34:32;;;;;;;21.40;9.25;;;;;;;9.18;100.00;98096.88;4345518;32;20044;-75
2022/11/04 04:37:04;;;;;;;22.75;9.50;;;;;;;9.64;100.00;98143.47;4354238;32;20078;-75
2022/11/04 04:45:31;;;;;;;22.95;10.43;;;;;;;9.59;100.00;98129.22;4355752;32;20065;-75
2022/11/04 04:47:58;;;;;;;23.02;10.15;;;;;;;9.34;100.00;98128.06;4345125;32;20381;-75
2022/11/04 04:50:29;;;;;;;22.80;9.95;;;;;;;9.23;100.00;98099.56;4343729;32;20095;-76
2022/11/04 04:52:58;;;;;;;28.83;10.82;;;;;;;9.30;100.00;98094.75;4356878;32;20089;-76
2022/11/04 04:55:25;;;;;;;20.58;8.93;;;;;;;9.12;100.00;98095.22;4355473;32;20050;-74
2022/11/04 04:57:51;;;;;;;20.17;9.02;;;;;;;9.38;100.00;98094.25;4339105;33;20178;-76
2022/11/04 05:00:20;;;;;;;22.83;9.68;;;;;;;9.57;100.00;98136.72;4328462;32;20046;-76
2022/11/04 05:02:47;;;;;;;23.87;10.20;;;;;;;9.66;100.00;98132.47;4335864;33;20107;-76
2022/11/04 05:05:14;;;;;;;23.95;11.55;;;;;;;9.60;100.00;98093.22;4337448;33;20385;-75
2022/11/04 05:07:41;;;;;;;28.65;11.93;;;;;;;9.16;100.00;98082.88;4322689;33;20025;-75
2022/11/04 05:10:09;;;;;;;16.50;9.73;;;;;;;9.43;100.00;98142.63;4331729;32;20048;-74
2022/11/04 05:15:26;;;;;;;32.17;11.27;;;;;;;9.30;100.00;98084.00;4306312;33;20052;-74
2022/11/04 05:17:54;;;;;;;24.45;10.23;;;;;;;9.88;100.00;98123.38;4337034;33;20044;-74
2022/11/04 05:20:21;;;;;;;22.50;10.95;;;;;;;9.97;100.00;98114.50;4338682;33;20045;-74
2022/11/04 05:22:48;;;;;;;23.08;10.25;;;;;;;10.07;100.00;98102.94;4338209;33;20032;-74
2022/11/04 05:25:15;;;;;;;25.45;10.35;;;;;;;9.82;100.00;98106.41;4337462;32;20431;-73
2022/11/04 05:27:41;;;;;;;16.85;9.63;;;;;;;10.00;100.00;98113.16;4337937;33;20032;-75
2022/11/04 05:30:08;;;;;;;24.50;10.07;;;;;;;9.27;100.00;98073.81;4354992;32;20052;-74
2022/11/04 05:32:35;;;;;;;28.65;10.55;;;;;;;10.09;100.00;98110.75;4355584;32;20333;-75
2022/11/04 05:35:01;;;;;;;21.37;10.85;;;;;;;8.98;100.00;98006.28;4356450;32;20069;-75
2022/11/04 05:37:28;;;;;;;21.92;10.48;;;;;;;9.58;100.00;98100.75;4353462;32;20044;-73
2022/11/04 05:39:54;;;;;;;24.27;10.32;;;;;;;9.72;100.00;98071.47;4353893;32;20058;-74
2022/11/04 05:42:20;;;;;;;19.77;11.05;;;;;;;9.71;100.00;98110.97;4355497;32;20069;-74
2022/11/04 05:44:47;;;;;;;27.25;11.18;;;;;;;9.55;100.00;98106.62;4354961;32;20043;-74
2022/11/04 05:47:13;;;;;;;19.15;10.32;;;;;;;9.33;100.00;98099.59;4354838;32;20061;-73
2022/11/04 05:49:40;;;;;;;18.27;10.13;;;;;;;9.55;100.00;98101.25;4353110;32;20069;-74
2022/11/04 05:52:06;;;;;;;25.37;11.07;;;;;;;9.33;100.00;98067.34;4357013;32;20102;-74
2022/11/04 05:54:33;;;;;;;24.92;10.73;;;;;;;9.59;100.00;98110.44;4336469;33;20110;-73
2022/11/04 05:56:59;;;;;;;23.95;11.45;;;;;;;9.62;100.00;98110.69;4338125;33;20032;-73
2022/11/04 05:59:26;;;;;;;21.23;10.30;;;;;;;9.56;100.00;98109.06;4336052;33;20138;-74
2022/11/04 06:01:52;;;;;;;22.37;10.68;;;;;;;9.11;100.00;98074.81;4336344;33;20052;-73
2022/11/04 06:04:19;;;;;;;24.67;11.05;;;;;;;9.52;100.00;98102.59;4337754;33;20053;-74
2022/11/04 06:06:45;;;;;;;23.27;10.27;;;;;;;9.54;100.00;98105.00;4337462;33;20027;-74
2022/11/04 06:09:11;;;;;;;25.50;11.35;;;;;;;9.39;100.00;98109.28;4337490;33;20040;-73
2022/11/04 06:11:38;;;;;;;25.85;11.93;;;;;;;9.60;100.00;98109.34;4336246;33;20077;-73
2022/11/04 06:14:04;;;;;;;22.62;11.25;;;;;;;9.40;100.00;98078.66;4336118;33;20115;-73
2022/11/04 06:16:31;;;;;;;27.00;10.93;;;;;;;9.51;100.00;98116.28;4324173;33;20056;-73
2022/11/04 06:18:57;;;;;;;26.90;11.05;;;;;;;9.52;100.00;98080.28;4330036;33;20152;-73
2022/11/04 06:21:27;;;;;;;25.42;11.50;;;;;;;9.55;100.00;98069.81;4336477;33;20040;-73
2022/11/04 06:23:58;;;;;;;33.22;11.43;;;;;;;9.54;100.00;98110.37;4337639;33;20064;-73
2022/11/04 06:26:26;;;;;;;23.08;12.40;;;;;;;9.47;100.00;98073.03;4338222;33;20036;-73
2022/11/04 06:28:52;;;;;;;24.92;11.88;;;;;;;9.65;100.00;98112.03;4350548;32;20058;-73
2022/11/04 06:31:19;;;;;;;23.55;13.07;;;;;;;9.40;100.00;98073.28;4353738;32;20039;-74
2022/11/04 06:33:46;;;;;;;21.52;11.65;;;;;;;9.59;100.00;98123.88;4306642;33;20037;-75
2022/11/04 06:36:14;;;;;;;24.98;11.60;;;;;;;9.34;100.00;98090.47;4308703;33;20050;-74
2022/11/04 06:38:41;;;;;;;23.77;11.95;;;;;;;9.41;100.00;98104.47;4304455;33;20061;-74
2022/11/04 06:41:11;;;;;;;21.50;12.18;;;;;;;9.56;100.00;98124.38;4308041;33;20033;-74
2022/11/04 06:43:37;;;;;;;29.83;10.50;;;;;;;9.68;100.00;98116.88;4307652;33;20041;-74
2022/11/04 06:46:05;;;;;;;30.60;11.68;;;;;;;9.60;100.00;98117.41;4313718;33;20070;-74
2022/11/04 06:48:32;;;;;;;29.27;11.10;;;;;;;9.43;100.00;98115.75;4310282;33;20059;-74
2022/11/04 06:50:59;;;;;;;19.62;9.85;;;;;;;9.79;100.00;98107.75;4308257;33;20078;-73
2022/11/04 06:53:27;;;;;;;22.17;10.82;;;;;;;9.63;100.00;98103.44;4308575;33;20049;-74
2022/11/04 06:56:00;;;;;;;24.55;11.63;;;;;;;9.81;100.00;98118.22;4307102;33;20029;-75
2022/11/04 06:58:27;;;;;;;23.25;11.73;;;;;;;9.55;100.00;98074.38;4308070;33;20041;-76
2022/11/04 07:00:53;;;;;;;21.80;11.05;;;;;;;9.44;100.00;98085.12;4305193;33;20056;-78
2022/11/04 07:03:20;;;;;;;22.85;11.30;;;;;;;9.42;100.00;98071.13;4306828;33;20811;-78
2022/11/04 07:05:46;;;;;;;22.95;10.35;;;;;;;9.66;100.00;98081.41;4330278;33;20069;-74
2022/11/04 07:08:13;;;;;;;27.23;12.43;;;;;;;10.27;100.00;98095.94;4353156;32;20173;-75
2022/11/04 07:10:39;;;;;;;23.35;11.00;;;;;;;9.92;100.00;98094.84;4355085;32;20032;-75
2022/11/04 07:13:06;;;;;;;20.88;11.15;;;;;;;9.93;100.00;98051.56;4355364;32;20082;-76
2022/11/04 07:15:32;;;;;;;26.23;11.07;;;;;;;10.12;100.00;98097.56;4354025;32;20080;-76
2022/11/04 07:17:59;;;;;;;18.73;9.80;;;;;;;10.27;100.00;98085.97;4354389;32;20059;-77
2022/11/04 07:20:25;;;;;;;21.48;11.75;;;;;;;10.12;100.00;98100.25;4355104;32;20052;-77
2022/11/04 07:22:54;;;;;;;23.35;10.95;;;;;;;10.06;100.00;98095.13;4341837;33;20062;-77
2022/11/04 07:25:20;;;;;;;18.85;10.30;;;;;;;10.07;100.00;98100.25;4358674;32;20019;-78
2022/11/04 07:27:47;;;;;;;22.58;11.45;;;;;;;10.23;100.00;98067.94;4360622;32;20065;-77
2022/11/04 07:30:13;;;;;;;25.27;10.73;;;;;;;9.92;100.00;98090.28;4340363;33;20074;-77
2022/11/04 07:32:40;;;;;;;22.60;10.73;;;;;;;10.10;100.00;98080.87;4344247;32;20043;-78
2022/11/04 07:35:06;;;;;;;27.62;10.20;;;;;;;10.32;100.00;98093.22;4353686;32;20032;-77
2022/11/04 07:37:33;;;;;;;20.85;11.12;;;;;;;10.29;100.00;98085.69;4355071;32;20032;-77
2022/11/04 07:39:59;;;;;;;23.08;11.68;;;;;;;9.82;100.00;98058.81;4339260;32;20024;-77
2022/11/04 07:42:26;;;;;;;19.30;10.27;;;;;;;9.97;100.00;98049.13;4339600;33;20064;-76
2022/11/04 07:44:53;;;;;;;24.23;11.32;;;;;;;10.07;100.00;98059.91;4339046;33;20035;-76
2022/11/04 07:47:19;;;;;;;23.75;10.57;;;;;;;10.27;100.00;98069.03;4340946;33;20040;-76
2022/11/04 07:49:45;;;;;;;27.95;10.52;;;;;;;10.21;100.00;98070.09;4340763;33;20036;-77
2022/11/04 07:52:12;;;;;;;23.73;11.15;;;;;;;10.37;100.00;98031.41;4339433;33;20425;-76
2022/11/04 07:54:38;;;;;;;18.62;10.73;;;;;;;10.41;100.00;98053.97;4326035;33;20040;-76
2022/11/04 07:57:05;;;;;;;24.27;11.05;;;;;;;10.16;100.00;98054.78;4324535;33;20048;-76
2022/11/04 07:59:32;;;;;;;21.80;10.52;;;;;;;10.37;100.00;98066.38;4324357;33;20098;-77
2022/11/04 08:01:59;;;;;;;21.12;10.55;;;;;;;10.10;100.00;98021.72;4334927;33;20056;-73
2022/11/04 08:04:25;;;;;;;19.62;10.32;;;;;;;10.22;100.00;98050.22;4340216;33;20039;-76
2022/11/04 08:06:52;;;;;;;23.02;9.73;;;;;;;10.15;100.00;98002.88;4340367;33;20048;-75
2022/11/04 08:09:18;;;;;;;16.25;9.45;;;;;;;10.33;100.00;97992.62;4338642;33;20071;-75
2022/11/04 08:11:45;;;;;;;17.33;8.95;;;;;;;10.82;100.00;98037.69;4337088;33;20064;-75
2022/11/04 08:14:11;;;;;;;19.52;10.02;;;;;;;10.30;100.00;98009.31;4335820;32;20040;-75
2022/11/04 08:16:38;;;;;;;22.58;11.70;;;;;;;10.40;100.00;98052.34;4334635;33;20125;-77
2022/11/04 08:19:04;;;;;;;20.85;10.57;;;;;;;10.23;100.00;98032.97;4353277;32;20159;-75
2022/11/04 08:21:32;;;;;;;17.60;9.77;;;;;;;10.38;100.00;98043.75;4354543;32;20060;-75
2022/11/04 08:23:59;;;;;;;17.60;10.65;;;;;;;10.40;100.00;98030.81;4352602;32;20038;-75
2022/11/04 08:26:27;;;;;;;17.58;9.63;;;;;;;10.76;100.00;98008.38;4346114;32;20054;-75
2022/11/04 08:28:53;;;;;;;20.35;9.27;;;;;;;10.58;100.00;97988.25;4347020;32;20040;-76
2022/11/04 08:31:23;;;;;;;21.20;10.38;;;;;;;11.20;100.00;98029.97;4348722;32;20048;-75
2022/11/04 08:33:52;;;;;;;21.27;10.65;;;;;;;10.65;100.00;97999.53;4346572;32;20066;-78
2022/11/04 08:36:30;;;;;;;21.30;9.85;;;;;;;10.36;100.00;98002.84;4343770;32;20045;-75
2022/11/04 08:38:57;;;;;;;24.60;10.77;;;;;;;10.86;100.00;98033.34;4345701;32;20046;-75
2022/11/04 08:41:27;;;;;;;22.15;8.90;;;;;;;11.06;100.00;98035.16;4346210;32;20593;-76
2022/11/04 08:43:55;;;;;;;19.95;10.23;;;;;;;11.04;100.00;98023.88;4345028;32;20144;-75
2022/11/04 08:46:22;;;;;;;23.95;11.07;;;;;;;10.93;100.00;98021.50;4346252;32;20065;-76
2022/11/04 08:48:48;;;;;;;19.77;9.57;;;;;;;11.02;100.00;98003.66;4346581;32;20412;-75
2022/11/04 08:51:20;;;;;;;19.65;9.27;;;;;;;11.31;100.00;98033.41;4351333;32;20056;-76
2022/11/04 08:53:46;;;;;;;19.10;11.20;;;;;;;11.26;100.00;98026.19;4344705;32;20027;-76
2022/11/04 08:56:17;;;;;;;20.50;10.95;;;;;;;10.96;100.00;98015.56;4344499;32;20372;-77
2022/11/04 08:58:43;;;;;;;23.50;10.32;;;;;;;10.59;100.00;97993.34;4351614;32;20519;-76
2022/11/04 09:01:11;;;;;;;22.70;11.00;;;;;;;10.84;100.00;98023.97;4349897;32;20043;-76
2022/11/04 09:03:39;;;;;;;26.52;10.48;;;;;;;10.32;100.00;97980.22;4351506;32;20067;-74
2022/11/04 09:06:08;;;;;;;24.83;9.95;;;;;;;10.77;100.00;98045.81;4350084;32;20073;-76
2022/11/04 09:08:36;;;;;;;22.67;9.57;;;;;;;11.05;100.00;98046.22;4343253;32;20537;-75
2022/11/04 09:11:06;;;;;;;17.62;9.57;;;;;;;11.11;100.00;98028.16;4345726;32;20044;-78
2022/11/04 09:13:39;;;;;;;24.12;10.23;;;;;;;11.21;100.00;98007.31;4341707;32;20062;-73
2022/11/04 09:16:09;;;;;;;22.95;10.18;;;;;;;11.31;100.00;98044.19;4344793;32;20066;-76
2022/11/04 09:18:35;;;;;;;24.92;10.57;;;;;;;11.14;100.00;98044.56;4347056;32;20566;-74
2022/11/04 09:21:04;;;;;;;22.23;9.88;;;;;;;11.06;100.00;98037.88;4353033;32;20044;-76
2022/11/04 09:23:30;;;;;;;27.48;11.23;;;;;;;10.75;100.00;98042.56;4357042;32;20422;-75
2022/11/04 09:26:02;;;;;;;23.90;11.73;;;;;;;10.59;100.00;98024.84;4356955;32;20076;-76
2022/11/04 09:28:28;;;;;;;21.10;11.52;;;;;;;10.71;100.00;98039.63;4356889;32;20035;-76
2022/11/04 09:30:56;;;;;;;21.62;11.27;;;;;;;9.91;100.00;98001.84;4351463;32;20048;-77
2022/11/04 09:33:22;;;;;;;22.17;10.85;;;;;;;10.26;100.00;98037.81;4350611;32;20084;-76
2022/11/04 09:35:56;;;;;;;19.45;10.73;;;;;;;10.87;100.00;98024.22;4350608;32;20059;-76
2022/11/04 09:38:26;;;;;;;19.67;10.93;;;;;;;10.85;100.00;98012.91;4345802;32;20028;-74
2022/11/04 09:40:59;;;;;;;24.27;10.77;;;;;;;11.12;100.00;98018.97;4338276;32;20066;-74
2022/11/04 09:43:43;;;;;;;20.67;10.90;;;;;;;11.15;100.00;97997.66;4341622;33;20291;-75
2022/11/04 09:46:15;;;;;;;21.40;9.80;;;;;;;10.85;100.00;97977.91;4351648;32;20111;-76
2022/11/04 09:48:54;;;;;;;22.55;10.43;;;;;;;10.84;100.00;97997.84;4352478;32;20129;-76
2022/11/04 09:51:24;;;;;;;24.85;9.73;;;;;;;10.87;100.00;97986.50;4351212;32;20035;-76
2022/11/04 09:53:59;;;;;;;23.33;10.95;;;;;;;10.75;100.00;97999.47;4320878;33;20066;-76
2022/11/04 09:56:36;;;;;;;21.67;10.60;;;;;;;10.66;100.00;98007.34;4321380;33;20437;-75
2022/11/04 09:59:06;;;;;;;21.08;11.23;;;;;;;10.79;100.00;97968.25;4323604;33;20108;-75
2022/11/04 10:02:02;;;;;;;26.98;10.45;;;;;;;10.87;100.00;97985.72;4324615;33;20043;-76
2022/11/04 10:04:55;;;;;;;22.10;10.18;;;;;;;10.68;100.00;97988.22;4318536;33;20067;-75
2022/11/04 10:07:39;;;;;;;20.23;11.55;;;;;;;11.31;100.00;97994.88;4320263;33;20102;-75
2022/11/04 10:10:12;;;;;;;17.95;9.82;;;;;;;10.92;100.00;97963.34;4293534;33;20640;-75
2022/11/04 10:13:06;;;;;;;19.83;11.07;;;;;;;11.55;100.00;97997.66;4292591;33;20051;-75
2022/11/04 10:15:51;;;;;;;19.65;10.35;;;;;;;10.77;100.00;97956.13;4291352;33;20239;-75
2022/11/04 10:18:29;;;;;;;15.93;9.85;;;;;;;11.27;100.00;98000.81;4261832;33;20077;-74
2022/11/04 10:21:14;;;;;;;17.67;8.70;;;;;;;11.22;100.00;97968.53;4261500;33;20069;-73
2022/11/04 10:24:07;;;;;;;19.42;10.38;;;;;;;11.37;100.00;97999.16;4264670;33;20158;-74
2022/11/04 10:26:44;;;;;;;20.15;9.98;;;;;;;11.32;100.00;97948.78;4291648;33;20049;-74
2022/11/04 10:29:25;;;;;;;16.67;9.25;;;;;;;11.67;100.00;97997.34;4290947;33;20053;-74
2022/11/04 10:31:55;;;;;;;18.40;9.07;;;;;;;11.37;100.00;97999.94;4292510;33;20063;-74
2022/11/04 10:34:38;;;;;;;22.83;9.43;;;;;;;11.76;100.00;98001.03;4290927;33;20712;-75
2022/11/04 10:37:11;;;;;;;18.95;9.05;;;;;;;11.69;100.00;97987.06;4293722;33;20076;-74
2022/11/04 10:39:45;;;;;;;23.48;11.30;;;;;;;11.85;100.00;97999.31;4292767;33;20094;-74
2022/11/04 10:42:17;;;;;;;28.42;10.32;;;;;;;11.75;100.00;97994.03;4311863;33;20091;-74
2022/11/04 10:44:45;;;;;;;18.45;10.27;;;;;;;11.31;100.00;97973.31;4313049;33;20041;-74
2022/11/04 10:47:18;;;;;;;22.95;10.82;;;;;;;11.46;100.00;97954.34;4324931;33;20104;-75
2022/11/04 10:50:14;;;;;;;21.33;10.18;;;;;;;11.57;100.00;97988.22;4324451;33;20041;-73
2022/11/04 10:52:43;;;;;;;24.30;11.12;;;;;;;11.55;100.00;97984.19;4328028;33;20048;-75
2022/11/04 10:55:40;;;;;;;26.62;10.40;;;;;;;11.90;100.00;97991.22;4327101;33;20419;-74
2022/11/04 10:58:35;;;;;;;27.40;10.52;;;;;;;12.26;100.00;97980.06;4328712;33;20052;-75
2022/11/04 11:01:27;;;;;;;25.15;9.23;;;;;;;12.33;100.00;97972.47;4338543;33;20218;-75
2022/11/04 11:03:59;;;;;;;18.90;9.45;;;;;;;12.24;100.00;97968.78;4340463;33;20094;-75
2022/11/04 11:06:35;;;;;;;21.77;9.30;;;;;;;12.43;100.00;97968.00;4338772;33;20066;-75
2022/11/04 11:09:16;;;;;;;24.00;11.18;;;;;;;11.74;100.00;97927.69;4339072;33;20086;-75
2022/11/04 11:11:48;;;;;;;22.23;9.50;;;;;;;12.31;100.00;97965.72;4339580;33;20090;-74
2022/11/04 11:14:29;;;;;;;17.80;9.35;;;;;;;12.07;100.00;97963.00;4337318;33;20098;-75
2022/11/04 11:17:17;;;;;;;17.48;9.75;;;;;;;12.22;100.00;97967.44;4334296;33;20055;-76
2022/11/04 11:19:57;;;;;;;19.55;10.45;;;;;;;12.33;100.00;97967.06;4322226;33;20082;-74
2022/11/04 11:22:40;;;;;;;16.80;9.02;;;;;;;12.18;100.00;97962.62;4315010;33;20048;-75
2022/11/04 11:25:21;;;;;;;21.70;9.98;;;;;;;12.44;100.00;97969.62;4311222;33;20069;-75
2022/11/04 11:27:52;;;;;;;24.73;10.20;;;;;;;12.52;100.00;97963.59;4310597;33;20070;-75
2022/11/04 11:30:23;;;;;;;22.60;10.20;;;;;;;12.40;100.00;97960.47;4317557;33;20080;-75
2022/11/04 11:33:05;;;;;;;21.80;11.75;;;;;;;12.57;100.00;97949.22;4314031;33;20451;-75
2022/11/04 11:35:40;;;;;;;20.00;10.13;;;;;;;12.07;100.00;97909.84;4294572;33;20059;-74
2022/11/04 11:38:22;;;;;;;22.85;9.23;;;;;;;12.12;100.00;97938.66;4296296;33;20465;-75
2022/11/04 11:40:51;;;;;;;19.40;9.38;;;;;;;12.45;100.00;97952.34;4293787;33;20069;-76
2022/11/04 11:43:30;;;;;;;17.75;9.15;;;;;;;12.71;100.00;97940.12;4294536;33;20049;-76
2022/11/04 11:45:59;;;;;;;24.85;10.00;;;;;;;12.27;100.00;97914.22;4295511;33;20038;-77
2022/11/04 11:48:28;;;;;;;21.50;8.95;;;;;;;12.28;100.00;97923.91;4294601;33;20075;-77
2022/11/04 11:50:59;;;;;;;28.27;11.23;;;;;;;12.65;100.00;97935.91;4308984;33;20057;-74
2022/11/04 11:53:34;;;;;;;20.73;10.35;;;;;;;12.47;100.00;97944.75;4323857;33;20037;-76
2022/11/04 11:56:27;;;;;;;22.30;10.55;;;;;;;12.49;100.00;97942.56;4323894;33;20193;-76
2022/11/04 11:59:27;;;;;;;21.20;9.23;;;;;;;12.53;100.00;97944.41;4323096;33;20078;-76
2022/11/04 12:02:31;;;;;;;18.05;9.93;;;;;;;12.95;100.00;97938.47;4322816;33;20060;-76
2022/11/04 12:04:59;;;;;;;22.67;10.73;;;;;;;13.04;100.00;97942.91;4285818;33;20037;-76
2022/11/04 12:07:54;;;;;;;25.58;9.15;;;;;;;12.72;100.00;97944.44;4262960;33;20485;-75
2022/11/04 12:10:44;;;;;;;16.12;9.52;;;;;;;12.80;100.00;97942.19;4268443;33;20038;-76
2022/11/04 12:13:34;;;;;;;15.98;9.15;;;;;;;12.43;100.00;97922.13;4266593;33;20037;-76